MET'MAP v2.0
soon released !

Expected late october,
this new version will be
more efficient, smarter,
and hosted on a brand new
server x3 powerfull...
...and still free !


Not compatible ?
Try the mobile version !

LOG IN : | Subscribe | Disclaimer | Who is Orbifly ? |
ICAO code :

TAF - LFCG St Girons Antichan - 07 Dec 2019 02:47 UTC
Data Sources :     NOAA   


- Airport Elevation : 1368 ft
- No reported NOTAMs.


LFCG - St Girons Antichan

Latest METAR recorded : 0000/00/00 L :06 TAF LELL 061400Z 0615/0715 VRB05KT 9999 SCT040 TX16/0713Z TN05/0706Z
NO TAF


MET'MAP, your aeronautical weather chart ! - Copyright ORBIFLY December 2007

Programming & Development : Alexandra Zaïnal
Co-Developer : Marc-Olivier Méhu
Technical & hardware support : Manuel Goepfert
Concept & Financing : Baudouin d'Aumeries